createdAt,value
2023-10-01T00:01:54.650Z,4.80
2023-10-01T00:04:37.738Z,4.25
2023-10-01T00:07:20.664Z,2.03
2023-10-01T00:10:07.791Z,3.65
2023-10-01T00:12:53.339Z,3.40
2023-10-01T00:15:39.099Z,2.30
2023-10-01T00:18:23.587Z,3.42
2023-10-01T00:21:06.709Z,3.42
2023-10-01T00:23:52.926Z,2.47
2023-10-01T00:26:37.330Z,2.28
2023-10-01T00:29:20.424Z,3.65
2023-10-01T00:32:04.167Z,2.88
2023-10-01T00:34:48.446Z,3.03
2023-10-01T00:37:31.420Z,3.33
2023-10-01T00:40:16.063Z,2.47
2023-10-01T00:45:42.719Z,4.65
2023-10-01T00:48:26.467Z,3.20
2023-10-01T00:51:11.736Z,3.42
2023-10-01T00:53:58.640Z,3.55
2023-10-01T00:56:43.509Z,2.90
2023-10-01T00:59:26.407Z,4.10
2023-10-01T01:02:10.742Z,4.45
2023-10-01T01:05:21.067Z,3.85
2023-10-01T01:08:22.168Z,3.75
2023-10-01T01:11:05.498Z,3.67
2023-10-01T01:13:48.405Z,3.70
2023-10-01T01:16:31.780Z,4.55
2023-10-01T01:19:16.273Z,4.40
2023-10-01T01:21:59.224Z,3.92
2023-10-01T01:24:43.477Z,3.38
2023-10-01T01:27:29.646Z,3.50
2023-10-01T01:30:19.689Z,3.17
2023-10-01T01:33:02.625Z,3.33
2023-10-01T01:35:46.238Z,3.17
2023-10-01T01:38:29.154Z,4.00
2023-10-01T01:41:13.647Z,7.47
2023-10-01T01:43:56.585Z,4.68
2023-10-01T01:46:48.925Z,3.97
2023-10-01T01:49:32.196Z,4.40
2023-10-01T01:52:17.221Z,6.25
2023-10-01T01:55:01.849Z,5.50
2023-10-01T01:57:57.914Z,4.60
2023-10-01T02:00:48.525Z,4.85
2023-10-01T02:03:34.162Z,4.65
2023-10-01T02:06:27.990Z,3.50
2023-10-01T02:09:15.729Z,5.75
2023-10-01T02:11:58.634Z,5.10
2023-10-01T02:14:43.019Z,5.20
2023-10-01T02:17:31.102Z,4.07
2023-10-01T02:20:29.242Z,3.60
2023-10-01T02:23:14.112Z,4.50
2023-10-01T02:25:58.728Z,4.32
2023-10-01T02:28:41.589Z,3.13
2023-10-01T02:31:25.890Z,4.90
2023-10-01T02:34:10.171Z,4.47
2023-10-01T02:36:53.525Z,3.78
2023-10-01T02:39:39.035Z,2.42
2023-10-01T02:42:23.194Z,4.30
2023-10-01T02:45:27.703Z,5.00
2023-10-01T02:48:18.914Z,4.75
2023-10-01T02:51:15.704Z,6.15
2023-10-01T02:54:06.614Z,7.85
2023-10-01T02:56:54.267Z,4.38
2023-10-01T02:59:37.948Z,5.32
2023-10-01T03:02:26.254Z,4.60
2023-10-01T03:05:20.173Z,6.55
2023-10-01T03:08:24.230Z,5.97
2023-10-01T03:11:07.748Z,4.90
2023-10-01T03:13:55.236Z,4.78
2023-10-01T03:16:45.065Z,4.60
2023-10-01T03:19:28.352Z,5.10
2023-10-01T03:22:16.511Z,7.20
2023-10-01T03:25:14.606Z,7.30
2023-10-01T03:28:00.033Z,5.35
2023-10-01T03:30:48.117Z,4.70
2023-10-01T03:33:31.887Z,4.80
2023-10-01T03:36:26.034Z,4.68
2023-10-01T03:39:26.607Z,5.85
2023-10-01T03:42:18.854Z,4.20
2023-10-01T03:45:20.584Z,5.88
2023-10-01T03:48:07.455Z,4.22
2023-10-01T03:50:51.711Z,7.68
2023-10-01T03:53:34.680Z,6.05
2023-10-01T03:56:21.301Z,5.38
2023-10-01T03:59:16.620Z,4.82
2023-10-01T04:02:04.034Z,4.63
2023-10-01T04:04:58.757Z,7.13
2023-10-01T04:07:43.788Z,5.18
2023-10-01T04:10:31.855Z,5.55
2023-10-01T04:13:22.123Z,7.22
2023-10-01T04:16:09.937Z,5.50
2023-10-01T04:18:53.148Z,4.22
2023-10-01T04:21:36.081Z,4.47
2023-10-01T04:24:23.095Z,5.05
2023-10-01T04:27:19.703Z,4.30
2023-10-01T04:30:09.817Z,3.35
2023-10-01T04:32:52.740Z,5.22
2023-10-01T04:35:35.627Z,6.18
2023-10-01T04:38:19.508Z,4.80
2023-10-01T04:41:04.513Z,7.03
2023-10-01T04:43:57.823Z,4.85
2023-10-01T04:46:42.760Z,5.07
2023-10-01T04:49:44.430Z,4.20
2023-10-01T04:52:27.653Z,5.18
2023-10-01T04:55:23.324Z,4.53
2023-10-01T04:58:07.644Z,6.38
2023-10-01T05:00:50.579Z,8.20
2023-10-01T05:03:41.873Z,5.63
2023-10-01T05:06:28.719Z,5.20
2023-10-01T05:09:15.849Z,4.90
2023-10-01T05:11:59.759Z,4.28
2023-10-01T05:15:00.922Z,3.63
2023-10-01T05:17:44.664Z,5.90
2023-10-01T05:20:29.822Z,4.68
2023-10-01T05:23:13.321Z,5.13
2023-10-01T05:25:57.583Z,6.13
2023-10-01T05:28:42.653Z,3.40
2023-10-01T05:31:26.950Z,6.72
2023-10-01T05:34:12.980Z,3.88
2023-10-01T05:37:10.019Z,5.05
2023-10-01T05:42:48.774Z,6.82
2023-10-01T05:45:38.513Z,5.55
2023-10-01T05:48:24.336Z,4.50
2023-10-01T05:51:12.527Z,4.85
2023-10-01T05:53:57.043Z,7.18
2023-10-01T05:56:44.541Z,8.85
2023-10-01T05:59:28.208Z,4.82
2023-10-01T06:02:30.171Z,4.93
2023-10-01T06:05:26.465Z,3.70
2023-10-01T06:08:16.332Z,5.82
2023-10-01T06:11:06.243Z,7.20
2023-10-01T06:13:54.785Z,7.25
2023-10-01T06:16:38.970Z,6.63
2023-10-01T06:19:23.638Z,6.00
2023-10-01T06:22:23.623Z,7.13
2023-10-01T06:25:08.229Z,5.45
2023-10-01T06:28:09.091Z,5.75
2023-10-01T06:30:52.082Z,5.30
2023-10-01T06:33:37.321Z,9.40
2023-10-01T06:36:22.476Z,10.50
2023-10-01T06:39:07.599Z,6.78
2023-10-01T06:41:50.540Z,8.73
2023-10-01T06:44:34.903Z,8.80
2023-10-01T06:47:18.947Z,7.93
2023-10-01T06:50:13.684Z,7.10
2023-10-01T06:52:58.899Z,6.35
2023-10-01T06:55:46.803Z,7.50
2023-10-01T06:58:29.789Z,6.57
2023-10-01T07:01:28.071Z,7.50
2023-10-01T07:04:12.508Z,6.88
2023-10-01T07:06:55.611Z,6.63
2023-10-01T07:09:39.286Z,6.35
2023-10-01T07:12:25.013Z,5.60
2023-10-01T07:15:10.370Z,6.32
2023-10-01T07:17:55.064Z,6.35
2023-10-01T07:20:39.256Z,7.88
2023-10-01T07:23:23.334Z,8.32
2023-10-01T07:26:13.778Z,7.40
2023-10-01T07:29:00.026Z,7.68
2023-10-01T07:31:44.273Z,7.35
2023-10-01T07:34:28.734Z,7.13
2023-10-01T07:37:11.840Z,8.93
2023-10-01T07:39:56.873Z,9.27
2023-10-01T07:42:48.181Z,8.07
2023-10-01T07:45:32.203Z,7.30
2023-10-01T07:48:17.394Z,7.57
2023-10-01T07:51:04.224Z,7.80
2023-10-01T07:53:48.323Z,8.52
2023-10-01T07:56:34.256Z,8.05
2023-10-01T07:59:29.882Z,9.25
2023-10-01T08:02:21.411Z,6.60
2023-10-01T08:05:09.896Z,11.38
2023-10-01T08:07:54.214Z,9.30
2023-10-01T08:10:38.840Z,9.65
2023-10-01T08:16:14.722Z,7.45
2023-10-01T08:18:59.965Z,10.00
2023-10-01T08:21:49.743Z,7.90
2023-10-01T08:24:34.997Z,8.73
2023-10-01T08:27:31.232Z,9.23
2023-10-01T08:30:20.855Z,8.32
2023-10-01T08:33:22.846Z,8.90
2023-10-01T08:36:34.877Z,8.93
2023-10-01T08:39:35.225Z,9.63
2023-10-01T08:42:18.679Z,9.30
2023-10-01T08:45:05.513Z,7.90
2023-10-01T08:47:49.867Z,10.77
2023-10-01T08:50:37.863Z,9.20
2023-10-01T08:53:20.804Z,13.27
2023-10-01T08:56:06.718Z,9.25
2023-10-01T08:58:50.994Z,9.63
2023-10-01T09:01:34.026Z,12.30
2023-10-01T09:04:30.733Z,11.48
2023-10-01T09:07:19.376Z,10.90
2023-10-01T09:10:19.355Z,10.80
2023-10-01T09:13:05.173Z,9.73
2023-10-01T09:15:55.871Z,8.27
2023-10-01T09:19:05.106Z,10.77
2023-10-01T09:21:49.102Z,11.70
2023-10-01T09:24:39.574Z,12.60
2023-10-01T09:27:26.180Z,11.00
2023-10-01T09:30:24.071Z,14.13
2023-10-01T09:33:16.019Z,12.52
2023-10-01T09:36:01.138Z,10.45
2023-10-01T09:41:46.835Z,11.00
2023-10-01T09:44:30.990Z,12.38
2023-10-01T09:47:14.166Z,8.48
2023-10-01T09:50:01.346Z,12.30
2023-10-01T09:52:50.903Z,11.27
2023-10-01T09:55:36.964Z,12.02
2023-10-01T09:58:25.918Z,9.75
2023-10-01T10:01:12.557Z,10.02
2023-10-01T10:04:00.357Z,8.90
2023-10-01T10:06:44.913Z,10.35
2023-10-01T10:09:30.850Z,8.77
2023-10-01T10:12:15.326Z,8.88
2023-10-01T10:14:59.422Z,9.32
2023-10-01T10:18:00.984Z,10.48
2023-10-01T10:20:58.925Z,11.00
2023-10-01T10:23:56.878Z,11.30
2023-10-01T10:26:58.272Z,8.98
2023-10-01T10:30:19.704Z,9.80
2023-10-01T10:33:40.300Z,8.55
2023-10-01T10:36:55.321Z,11.73
2023-10-01T10:40:23.792Z,8.40
2023-10-01T10:43:19.532Z,8.88
2023-10-01T10:46:05.741Z,7.80
2023-10-01T10:49:01.301Z,10.02
2023-10-01T10:51:48.123Z,8.15
2023-10-01T10:54:31.979Z,11.55
2023-10-01T10:57:26.628Z,9.67
2023-10-01T11:00:24.568Z,7.43
2023-10-01T11:03:11.341Z,8.95
2023-10-01T11:05:54.320Z,7.13
2023-10-01T11:08:37.212Z,10.32
2023-10-01T11:14:19.139Z,8.35
2023-10-01T11:17:02.713Z,11.18
2023-10-01T11:19:49.164Z,9.38
2023-10-01T11:22:32.346Z,7.82
2023-10-01T11:25:15.433Z,9.00
2023-10-01T11:28:06.530Z,10.23
2023-10-01T11:30:51.347Z,9.48
2023-10-01T11:33:34.272Z,10.07
2023-10-01T11:36:20.949Z,7.53
2023-10-01T11:39:05.547Z,8.05
2023-10-01T11:41:47.542Z,7.32
2023-10-01T11:44:37.172Z,7.28
2023-10-01T11:47:32.633Z,8.55
2023-10-01T11:50:15.546Z,7.63
2023-10-01T11:53:05.790Z,8.75
2023-10-01T11:55:48.656Z,7.28
2023-10-01T11:58:33.490Z,9.27
2023-10-01T12:01:16.559Z,7.90
2023-10-01T12:04:00.984Z,9.00
2023-10-01T12:06:45.167Z,6.38
2023-10-01T12:09:40.918Z,7.43
2023-10-01T12:12:26.455Z,7.78
2023-10-01T12:15:27.974Z,7.65
2023-10-01T12:18:15.504Z,6.13
2023-10-01T12:21:00.601Z,8.05
2023-10-01T12:23:50.432Z,7.30
2023-10-01T12:26:37.591Z,7.53
2023-10-01T12:29:20.569Z,7.30
2023-10-01T12:32:06.064Z,7.25
2023-10-01T12:34:49.011Z,7.10
2023-10-01T12:37:39.230Z,7.65
2023-10-01T12:40:23.310Z,8.00
2023-10-01T12:43:27.843Z,8.77
2023-10-01T12:46:11.803Z,8.50
2023-10-01T12:49:15.675Z,7.78
2023-10-01T12:51:58.756Z,7.80
2023-10-01T12:54:43.154Z,6.55
2023-10-01T12:57:28.023Z,8.27
2023-10-01T13:00:24.310Z,8.52
2023-10-01T13:03:17.185Z,9.85
2023-10-01T13:06:06.671Z,9.02
2023-10-01T13:08:49.668Z,7.95
2023-10-01T13:11:44.614Z,10.75
2023-10-01T13:14:42.097Z,10.05
2023-10-01T13:17:36.430Z,10.93
2023-10-01T13:20:24.196Z,11.43
2023-10-01T13:23:09.024Z,11.48
2023-10-01T13:26:06.693Z,9.05
2023-10-01T13:28:52.279Z,8.48
2023-10-01T13:31:41.972Z,9.55
2023-10-01T13:34:33.514Z,10.65
2023-10-01T13:37:31.025Z,10.68
2023-10-01T13:40:20.584Z,8.60
2023-10-01T13:43:20.917Z,10.88
2023-10-01T13:46:22.684Z,9.60
2023-10-01T13:49:23.461Z,10.80
2023-10-01T13:52:23.617Z,9.20
2023-10-01T13:55:25.115Z,12.00
2023-10-01T13:58:25.597Z,11.38
2023-10-01T14:01:27.148Z,13.13
2023-10-01T14:04:28.534Z,12.75
2023-10-01T14:07:30.233Z,8.65
2023-10-01T14:10:17.674Z,7.65
2023-10-01T14:13:04.489Z,10.30
2023-10-01T14:15:47.359Z,9.48
2023-10-01T14:18:37.256Z,9.70
2023-10-01T14:21:22.296Z,9.43
2023-10-01T14:24:21.129Z,12.38
2023-10-01T14:27:07.172Z,10.80
2023-10-01T14:30:01.995Z,9.98
2023-10-01T14:32:46.367Z,10.65
2023-10-01T14:35:39.009Z,11.27
2023-10-01T14:38:27.060Z,9.68
2023-10-01T14:41:12.292Z,10.77
2023-10-01T14:43:55.577Z,10.75
2023-10-01T14:46:42.308Z,11.95
2023-10-01T14:49:25.716Z,12.60
2023-10-01T14:52:24.129Z,10.02
2023-10-01T14:55:08.629Z,8.60
2023-10-01T14:57:53.613Z,11.27
2023-10-01T15:00:50.452Z,10.63
2023-10-01T15:03:36.529Z,9.88
2023-10-01T15:06:19.452Z,8.73
2023-10-01T15:09:04.195Z,12.05
2023-10-01T15:11:50.091Z,8.18
2023-10-01T15:14:36.386Z,9.18
2023-10-01T15:17:26.359Z,9.25
2023-10-01T15:20:10.905Z,10.48
2023-10-01T15:22:53.901Z,9.50
2023-10-01T15:25:40.486Z,8.77
2023-10-01T15:28:23.520Z,11.38
2023-10-01T15:31:11.460Z,10.77
2023-10-01T15:34:02.601Z,8.95
2023-10-01T15:36:54.460Z,8.38
2023-10-01T15:39:40.119Z,8.45
2023-10-01T15:42:25.886Z,8.88
2023-10-01T15:45:18.896Z,11.27
2023-10-01T15:48:08.857Z,7.20
2023-10-01T15:50:53.978Z,9.98
2023-10-01T15:53:36.804Z,8.30
2023-10-01T15:56:31.213Z,7.93
2023-10-01T15:59:20.856Z,7.05
2023-10-01T16:02:07.892Z,7.40
2023-10-01T16:05:00.511Z,8.30
2023-10-01T16:07:45.336Z,9.98
2023-10-01T16:10:28.389Z,7.82
2023-10-01T16:13:15.004Z,6.88
2023-10-01T16:16:02.938Z,8.10
2023-10-01T16:18:48.717Z,5.85
2023-10-01T16:21:34.376Z,8.57
2023-10-01T16:24:17.338Z,8.05
2023-10-01T16:27:07.328Z,9.05
2023-10-01T16:29:50.239Z,7.78
2023-10-01T16:32:34.513Z,6.82
2023-10-01T16:35:21.089Z,8.13
2023-10-01T16:38:04.849Z,8.95
2023-10-01T16:40:48.556Z,11.18
2023-10-01T16:43:41.046Z,10.98
2023-10-01T16:46:25.777Z,9.60
2023-10-01T16:49:14.150Z,8.02
2023-10-01T16:51:58.188Z,8.93
2023-10-01T16:54:43.027Z,8.55
2023-10-01T16:57:28.288Z,9.70
2023-10-01T17:00:17.553Z,10.50
2023-10-01T17:03:04.965Z,10.77
2023-10-01T17:05:49.904Z,8.65
2023-10-01T17:11:19.912Z,12.95
2023-10-01T17:14:12.599Z,10.35
2023-10-01T17:16:58.596Z,9.82
2023-10-01T17:19:41.526Z,10.20
2023-10-01T17:22:25.984Z,11.10
2023-10-01T17:25:15.537Z,9.45
2023-10-01T17:28:02.485Z,12.52
2023-10-01T17:30:46.637Z,9.98
2023-10-01T17:33:31.399Z,10.52
2023-10-01T17:39:02.077Z,13.30
2023-10-01T17:41:45.362Z,11.18
2023-10-01T17:44:30.136Z,11.30
2023-10-01T17:49:58.069Z,10.13
2023-10-01T17:52:41.205Z,11.82
2023-10-01T17:55:27.011Z,11.88
2023-10-01T17:58:10.844Z,11.00
2023-10-01T18:00:53.984Z,12.27
2023-10-01T18:03:51.009Z,9.25
2023-10-01T18:06:34.341Z,13.77
2023-10-01T18:09:21.860Z,14.65
2023-10-01T18:12:15.225Z,14.23
2023-10-01T18:15:00.783Z,14.60
2023-10-01T18:17:48.963Z,11.57
2023-10-01T18:20:35.205Z,13.40
2023-10-01T18:23:20.477Z,13.00
2023-10-01T18:26:04.773Z,12.43
2023-10-01T18:28:49.161Z,11.52
2023-10-01T18:31:32.267Z,12.30
2023-10-01T18:34:15.214Z,11.35
2023-10-01T18:37:02.542Z,10.60
2023-10-01T18:39:46.095Z,9.07
2023-10-01T18:42:29.036Z,10.40
2023-10-01T18:45:13.425Z,9.82
2023-10-01T18:47:57.587Z,10.73
2023-10-01T18:50:45.410Z,13.48
2023-10-01T18:53:28.633Z,12.07
2023-10-01T18:56:12.706Z,12.07
2023-10-01T18:58:56.044Z,11.63
2023-10-01T19:01:40.947Z,12.35
2023-10-01T19:04:26.039Z,11.57
2023-10-01T19:07:12.239Z,9.43
2023-10-01T19:09:55.436Z,11.38
2023-10-01T19:12:39.494Z,11.05
2023-10-01T19:15:22.453Z,12.32
2023-10-01T19:18:12.117Z,9.05
2023-10-01T19:20:56.813Z,10.60
2023-10-01T19:23:42.074Z,9.82
2023-10-01T19:26:28.921Z,9.57
2023-10-01T19:29:14.171Z,8.38
2023-10-01T19:31:58.184Z,7.60
2023-10-01T19:34:44.727Z,6.93
2023-10-01T19:37:28.621Z,8.18
2023-10-01T19:40:19.248Z,9.75
2023-10-01T19:43:02.873Z,9.85
2023-10-01T19:45:45.858Z,10.82
2023-10-01T19:48:28.759Z,9.55
2023-10-01T19:51:23.567Z,11.05
2023-10-01T19:54:07.230Z,9.75
2023-10-01T19:56:51.895Z,8.18
2023-10-01T20:02:27.208Z,8.85
2023-10-01T20:05:14.848Z,10.07
2023-10-01T20:08:00.894Z,9.93
2023-10-01T20:10:46.276Z,9.10
2023-10-01T20:13:31.789Z,12.98
2023-10-01T20:16:15.122Z,11.93
2023-10-01T20:18:58.123Z,8.63
2023-10-01T20:21:41.214Z,10.52
2023-10-01T20:24:25.709Z,12.95
2023-10-01T20:27:09.461Z,12.77
2023-10-01T20:29:57.126Z,10.02
2023-10-01T20:32:40.486Z,10.23
2023-10-01T20:35:23.514Z,9.60
2023-10-01T20:38:06.983Z,10.38
2023-10-01T20:40:51.919Z,11.55
2023-10-01T20:43:35.149Z,9.63
2023-10-01T20:46:18.849Z,9.75
2023-10-01T20:49:03.479Z,10.67
2023-10-01T20:51:47.789Z,9.57
2023-10-01T20:54:31.351Z,7.88
2023-10-01T20:57:16.130Z,10.38
2023-10-01T21:02:41.729Z,9.45
2023-10-01T21:05:29.063Z,10.65
2023-10-01T21:08:18.825Z,9.95
2023-10-01T21:11:03.443Z,11.63
2023-10-01T21:16:41.694Z,9.65
2023-10-01T21:19:25.179Z,10.18
2023-10-01T21:22:10.428Z,9.65
2023-10-01T21:24:53.592Z,10.48
2023-10-01T21:27:38.478Z,10.50
2023-10-01T21:30:23.828Z,10.60
2023-10-01T21:33:07.018Z,9.35
2023-10-01T21:35:50.246Z,9.70
2023-10-01T21:38:33.212Z,9.80
2023-10-01T21:41:20.305Z,11.63
2023-10-01T21:44:06.854Z,9.90
2023-10-01T21:46:51.211Z,11.93
2023-10-01T21:49:35.567Z,12.40
2023-10-01T21:52:25.948Z,14.52
2023-10-01T21:55:11.421Z,12.95
2023-10-01T21:57:54.306Z,13.07
2023-10-01T22:01:02.111Z,14.18
2023-10-01T22:03:48.896Z,12.93
2023-10-01T22:06:32.097Z,15.90
2023-10-01T22:09:22.423Z,17.10
2023-10-01T22:12:06.718Z,11.95
2023-10-01T22:14:49.852Z,12.00
2023-10-01T22:17:36.249Z,10.65
2023-10-01T22:20:32.020Z,11.10
2023-10-01T22:23:17.981Z,10.70
2023-10-01T22:26:02.081Z,13.82
2023-10-01T22:28:45.386Z,10.57
2023-10-01T22:31:29.349Z,14.10
2023-10-01T22:34:14.957Z,10.80
2023-10-01T22:36:59.770Z,9.15
2023-10-01T22:39:49.702Z,8.95
2023-10-01T22:42:35.070Z,10.65
2023-10-01T22:45:29.186Z,9.75
2023-10-01T22:48:19.246Z,9.02
2023-10-01T22:51:02.334Z,10.68
2023-10-01T22:53:46.605Z,10.50
2023-10-01T22:56:30.386Z,12.75
2023-10-01T22:59:17.275Z,13.43
2023-10-01T23:02:00.645Z,10.38
2023-10-01T23:04:54.522Z,10.75
2023-10-01T23:07:37.932Z,11.82
2023-10-01T23:10:26.836Z,10.52
2023-10-01T23:13:12.160Z,11.77
2023-10-01T23:16:02.703Z,9.57
2023-10-01T23:18:47.044Z,11.18
2023-10-01T23:21:47.177Z,11.63
2023-10-01T23:24:42.182Z,13.27
2023-10-01T23:27:46.690Z,11.77
2023-10-01T23:30:38.016Z,11.55
2023-10-01T23:33:21.236Z,11.52
2023-10-01T23:36:10.104Z,14.90
2023-10-01T23:39:00.518Z,13.55
2023-10-01T23:41:53.366Z,12.38
2023-10-01T23:44:55.281Z,16.02
2023-10-01T23:47:38.261Z,12.60
2023-10-01T23:50:30.382Z,11.70
2023-10-01T23:53:20.532Z,12.50
2023-10-01T23:56:15.004Z,12.30
2023-10-01T23:58:58.495Z,9.15
